Jewett, Texas
Current Conditions -  °F | °C
As of 4:55 PM on Saturday 20 Dec 2014 (Local Time) from KLXY Reporting Station
Overcast Overcast  
Wind Chill: 50°   Ceiling: 1400
Heat Index: 50°   Visibility: 10mi
Dew Point: 46°   Wind: 3mph
Humidity: 87%   Direction: 360°N
Pressure: 30.17"   Gusts: NA
Location:  31.36°N, 96.14°W
Report Text: KLXY 202255Z AUTO 36003KT 10SM OVC014 10/08 A3017 RMK AO2 T00990078
Loading
Personal Weather Stations






























Interactive Weather Map New forecast layout! Learn more

10-Day Weather Forecast

Advertisements
Track Severe Weather on mobile